Weather observations for the past three days for
Topeka, Philip Billard Municipal Airport
Metric (Imperial)
Date Time (cdt) Wind (kph) Vis. (km) Weather Sky Cond. Temperature (ºC) Relative Humidity Wind Chill (°C) Heat Index (°C) Pressure Precipitation (cm)
Air Dwpt 6 hour altimeter (cm) sea level (mb) 1 hr 3 hr 6 hr
Max. Min.
08 02:53 S 6 16.09 A Few Clouds FEW120 15.6 6.1 53% 75.69 1008.5
08 01:53 S 13 16.09 Partly Cloudy SCT110 16.7 5.6 48% 75.74 1009.2
08 00:53 SW 22 G 37 16.09 Partly Cloudy FEW060 FEW095 SCT120 16.7 6.1 21.7 16.1 50% 75.79 1009.9
07 23:53 S 13 16.09 Fair CLR 16.7 6.1 50% 75.77 1009.8
07 22:53 S 17 G 30 16.09 Fair CLR 17.2 6.1 48% 75.79 1009.9
07 21:53 S 13 16.09 Fair CLR 17.8 6.1 46% 75.77 1009.6
07 20:53 S 7 16.09 Fair CLR 18.3 6.1 45% 75.72 1009.1
07 19:53 S 9 16.09 Fair CLR 20 5.6 39% 75.69 1008.8
07 18:53 S 15 16.09 Fair CLR 21.7 5 22.8 18.3 34% 75.69 1009.0
07 17:53 SW 15 G 33 16.09 Fair CLR 22.2 4.4 31% 75.74 1009.5
07 16:53 SW 17 G 37 16.09 Fair CLR 22.2 5 33% 75.77 1010.0
07 15:53 S 26 G 39 16.09 Fair CLR 21.7 5 34% 75.82 1010.7
07 14:53 SW 24 G 39 16.09 Fair CLR 20.6 4.4 35% 75.92 1012.0
07 13:53 W 22 G 37 16.09 Fair CLR 20 5.6 39% 76 1012.8
07 12:53 SW 28 G 48 16.09 Fair CLR 18.3 5 18.3 6.7 42% 76.05 1013.5
07 11:53 SW 17 G 37 16.09 A Few Clouds FEW049 17.8 5.6 45% 76.12 1014.6
07 10:53 SW 24 G 44 16.09 Fair CLR 16.7 5 46% 76.17 1015.4
07 09:53 W 20 G 37 16.09 Fair CLR 15 5 51% 76.23 1016.0
07 08:53 W 9 16.09 Fair CLR 12.8 5.6 62% 76.25 1016.4
07 07:53 SW 9 16.09 Fair CLR 10 5 71% 9 76.25 1016.5
07 06:53 S 6 16.09 Fair CLR 6.7 3.9 10 6.1 83% 76.28 1016.7
07 05:53 SW 7 16.09 Fair CLR 7.2 3.9 80% 6 76.25 1016.6
07 04:53 S 6 16.09 Fair CLR 6.7 3.3 79% 76.28 1016.7
07 03:53 SW 6 16.09 Fair CLR 6.7 3.9 83% 76.3 1017.0
07 02:53 Calm 16.09 Fair CLR 6.1 3.3 82% 76.3 1017.2
07 01:53 S 6 16.09 Fair CLR 8.3 3.3 71% 76.33 1017.7
07 00:53 Calm 16.09 Fair CLR 9.4 2.8 15 7.8 64% 76.35 1018.0
06 23:53 SW 6 16.09 Fair CLR 10 1.7 57% 76.35 1018.0
06 22:53 Calm 16.09 Fair CLR 8.9 4.4 74% 76.35 1018.0
06 21:53 Calm 16.09 Fair CLR 8.9 2.8 66% 76.35 1018.1
06 20:53 Calm 16.09 Fair CLR 10.6 1.1 52% 76.33 1017.5
06 19:53 Calm 16.09 Fair CLR 14.4 -1.1 35% 76.3 1017.3
06 17:53 Vrbl 7 16.09 Fair CLR 16.1 -2.2 29% 76.33 1017.4
06 16:53 NW 20 G 31 16.09 Fair CLR 16.1 -1.7 30% 76.33 1017.6
06 15:53 N 15 G 28 16.09 Fair CLR 16.1 -1.1 31% 76.4 1018.3
06 14:53 N 11 16.09 Fair CLR 15.6 -1.7 31% 76.45 1019.1
06 13:53 Calm 16.09 Fair CLR 14.4 -3.3 29% 76.45 1019.3
06 12:53 N 13 16.09 Fair CLR 13.9 -1.7 14.4 6.1 34% 76.48 1019.7
06 11:53 NW 15 16.09 Mostly Cloudy BKN095 12.8 -1.7 37% 76.5 1020.1
06 10:53 N 13 16.09 Mostly Cloudy BKN110 12.8 -0.6 40% 76.48 1019.6
06 09:53 NW 11 16.09 Mostly Cloudy BKN110 11.7 1.1 48% 76.48 1019.5
06 08:53 W 13 16.09 Overcast OVC110 9.4 3.9 69% 8 76.45 1019.4
06 07:53 W 7 16.09 Mostly Cloudy BKN100 8.3 4.4 77% 7 76.38 1018.4
06 06:53 Calm 16.09 Fair CLR 6.1 3.9 8.3 5.6 86% 76.3 1017.3
06 05:53 Calm 16.09 Overcast SCT055 BKN070 OVC090 8.3 1.7 63% 76.25 1016.6
06 04:53 W 9 16.09 Overcast BKN055 OVC075 8.3 5.6 83% 7 76.33 1017.5
06 03:53 W 9 16.09 Overcast OVC100 7.8 5.6 86% 6 76.23 1016.2
06 02:53 W 6 16.09 Overcast OVC095 7.8 6.1 89% 76.23 1016.2
06 01:53 S 6 16.09 Overcast OVC090 7.8 5 83% 76.15 1015.3
06 00:53 Calm 16.09 Overcast BKN095 OVC120 8.3 5 12.8 7.8 80% 76.17 1015.6 0.08
05 23:53 NE 9 16.09 Light Rain BKN049 OVC065 7.8 5 83% 6 76.2 1015.9 0.08
05 22:53 NW 37 G 48 16.09 Light Rain and Breezy OVC046 10 2.8 61% 6 76.2 1015.8
05 21:53 N 7 16.09 Overcast OVC070 10.6 2.8 59% 76.05 1013.9
05 20:53 N 11 16.09 Overcast OVC090 11.1 3.3 59% 75.97 1012.9
05 19:53 N 9 16.09 Overcast OVC090 11.7 2.8 55% 75.95 1012.4
05 18:53 N 7 16.09 Overcast OVC090 12.8 4.4 13.3 10 57% 75.92 1012.1
05 17:53 NW 6 16.09 Overcast OVC090 12.8 7.2 69% 75.9 1011.7
05 16:53 NW 9 16.09 Overcast OVC085 12.2 6.7 69% 75.92 1011.9
05 15:53 N 7 16.09 Overcast OVC080 12.2 5.6 64% 75.95 1012.2
05 14:53 N 7 16.09 Overcast OVC075 11.1 5 66% 75.97 1012.5
05 13:53 N 7 16.09 Overcast OVC070 11.1 6.7 75% 75.97 1012.7
05 12:53 E 9 16.09 Overcast OVC065 10 6.1 10.6 8.9 77% 9 76 1012.9 0.03 0.46
05 11:53 E 11 16.09 Light Rain BKN065 OVC095 9.4 6.1 80% 8 76 1012.9
05 10:53 NE 13 16.09 Overcast FEW065 BKN090 OVC100 10 6.7 80% 8 76 1012.8 0.03
05 09:53 N 11 16.09 Overcast OVC085 8.9 6.7 86% 7 75.97 1012.7 0.15 0.41
05 08:53 NE 7 6.44 Rain Fog/Mist BKN070 OVC085 8.9 6.7 86% 8 75.95 1012.1 0.13
05 07:53 NE 7 16.09 Light Rain BKN065 BKN080 OVC090 8.9 6.1 83% 8 75.9 1011.5 0.13
05 06:53 NE 17 16.09 Overcast BKN090 OVC100 10.6 4.4 16.7 10 66% 75.72 1009.1 0.05 0.1
05 05:53 NE 17 G 35 16.09 Thunderstorm in Vicinity BKN090 12.2 0.6 45% 75.77 1009.5
05 04:53 NE 22 G 37 16.09 Mostly Cloudy BKN110 12.2 1.1 47% 75.69 1008.4
Date Time (cdt) Wind (kph) Vis. (km) Weather Sky Cond. Air Dwpt Max. Min. Relative Humidity Wind Chill (°C) Heat Index (°C) altimeter (cm) sea level (mb) 1 hr 3 hr 6 hr
6 hour
Temperature (ºC) Pressure Precipitation (cm)